createdAt,value
2023-01-21T00:02:18.556Z,98667.94
2023-01-21T00:04:47.099Z,98672.38
2023-01-21T00:07:14.171Z,98678.16
2023-01-21T00:09:41.038Z,98684.72
2023-01-21T00:12:07.680Z,98676.34
2023-01-21T00:14:34.272Z,98679.34
2023-01-21T00:17:00.848Z,98677.28
2023-01-21T00:19:29.163Z,98683.31
2023-01-21T00:21:55.699Z,98677.09
2023-01-21T00:24:25.078Z,98681.88
2023-01-21T00:26:53.107Z,98677.44
2023-01-21T00:29:20.392Z,98688.28
2023-01-21T00:31:47.131Z,98692.47
2023-01-21T00:34:13.801Z,98686.50
2023-01-21T00:36:40.352Z,98689.59
2023-01-21T00:39:07.184Z,98689.59
2023-01-21T00:41:33.911Z,98690.13
2023-01-21T00:44:00.514Z,98691.47
2023-01-21T00:46:27.469Z,98699.34
2023-01-21T00:48:56.175Z,98699.16
2023-01-21T00:51:23.055Z,98694.78
2023-01-21T00:53:49.578Z,98700.09
2023-01-21T00:56:16.141Z,98695.50
2023-01-21T00:58:43.661Z,98699.75
2023-01-21T01:01:14.636Z,98702.34
2023-01-21T01:03:41.582Z,98700.28
2023-01-21T01:06:09.507Z,98699.31
2023-01-21T01:08:36.075Z,98699.47
2023-01-21T01:11:02.635Z,98703.59
2023-01-21T01:13:29.416Z,98708.84
2023-01-21T01:15:57.605Z,98712.72
2023-01-21T01:18:25.081Z,98709.69
2023-01-21T01:20:52.327Z,98716.44
2023-01-21T01:23:18.958Z,98713.88
2023-01-21T01:25:54.248Z,98715.38
2023-01-21T01:28:20.795Z,98719.28
2023-01-21T01:30:47.423Z,98717.25
2023-01-21T01:33:14.049Z,98720.25
2023-01-21T01:35:42.085Z,98722.47
2023-01-21T01:38:09.599Z,98720.81
2023-01-21T01:40:37.712Z,98719.38
2023-01-21T01:43:06.165Z,98728.94
2023-01-21T01:45:32.764Z,98726.47
2023-01-21T01:48:00.454Z,98724.94
2023-01-21T01:50:30.793Z,98737.16
2023-01-21T01:52:57.344Z,98731.69
2023-01-21T01:55:23.882Z,98735.66
2023-01-21T01:57:51.068Z,98737.03
2023-01-21T02:00:18.290Z,98745.88
2023-01-21T02:03:05.069Z,98745.44
2023-01-21T02:05:32.214Z,98749.16
2023-01-21T02:07:58.785Z,98740.50
2023-01-21T02:10:25.340Z,98744.09
2023-01-21T02:12:52.171Z,98749.38
2023-01-21T02:15:18.761Z,98746.59
2023-01-21T02:17:51.795Z,98752.66
2023-01-21T02:20:37.494Z,98752.88
2023-01-21T02:23:30.400Z,98755.91
2023-01-21T02:26:15.040Z,98762.09
2023-01-21T02:28:47.401Z,98757.38
2023-01-21T02:31:18.823Z,98759.84
2023-01-21T02:33:57.714Z,98766.03
2023-01-21T02:36:31.018Z,98764.19
2023-01-21T02:39:04.088Z,98776.34
2023-01-21T02:41:34.544Z,98773.75
2023-01-21T02:44:10.543Z,98771.72
2023-01-21T02:46:39.613Z,98781.75
2023-01-21T02:49:14.238Z,98779.56
2023-01-21T02:51:45.642Z,98776.50
2023-01-21T02:54:16.068Z,98777.47
2023-01-21T02:56:42.979Z,98781.09
2023-01-21T02:59:09.555Z,98785.59
2023-01-21T03:01:51.283Z,98790.81
2023-01-21T03:04:27.027Z,98792.63
2023-01-21T03:06:56.353Z,98795.84
2023-01-21T03:09:26.797Z,98784.63
2023-01-21T03:12:06.389Z,98791.78
2023-01-21T03:15:07.230Z,98792.47
2023-01-21T03:17:44.619Z,98796.00
2023-01-21T03:20:12.162Z,98791.16
2023-01-21T03:22:38.907Z,98799.06
2023-01-21T03:25:06.027Z,98802.97
2023-01-21T03:27:32.609Z,98802.97
2023-01-21T03:30:00.252Z,98799.47
2023-01-21T03:32:27.009Z,98806.56
2023-01-21T03:34:53.979Z,98808.16
2023-01-21T03:37:34.392Z,98808.56
2023-01-21T03:40:36.516Z,98815.38
2023-01-21T03:43:03.051Z,98811.78
2023-01-21T03:45:48.637Z,98812.84
2023-01-21T03:48:19.324Z,98808.69
2023-01-21T03:50:47.883Z,98810.31
2023-01-21T03:53:14.481Z,98808.84
2023-01-21T03:55:41.036Z,98810.09
2023-01-21T03:58:07.587Z,98810.41
2023-01-21T04:00:34.194Z,98810.31
2023-01-21T04:03:01.139Z,98813.69
2023-01-21T04:05:27.774Z,98814.81
2023-01-21T04:07:54.317Z,98813.75
2023-01-21T04:10:20.914Z,98818.94
2023-01-21T04:12:47.469Z,98824.91
2023-01-21T04:15:14.071Z,98823.09
2023-01-21T04:17:40.705Z,98822.25
2023-01-21T04:20:07.644Z,98824.84
2023-01-21T04:22:34.274Z,98826.47
2023-01-21T04:25:00.969Z,98829.06
2023-01-21T04:27:27.545Z,98824.41
2023-01-21T04:29:54.144Z,98821.09
2023-01-21T04:32:20.760Z,98821.47
2023-01-21T04:34:47.309Z,98826.75
2023-01-21T04:37:13.868Z,98826.09
2023-01-21T04:39:40.465Z,98837.34
2023-01-21T04:42:07.068Z,98833.00
2023-01-21T04:44:33.690Z,98836.25
2023-01-21T04:47:00.222Z,98836.59
2023-01-21T04:49:26.783Z,98834.53
2023-01-21T04:51:53.539Z,98837.13
2023-01-21T04:54:20.079Z,98839.91
2023-01-21T04:56:46.618Z,98840.91
2023-01-21T04:59:13.179Z,98840.09
2023-01-21T05:01:39.736Z,98841.84
2023-01-21T05:04:06.291Z,98842.63
2023-01-21T05:06:32.851Z,98853.03
2023-01-21T05:08:59.948Z,98839.13
2023-01-21T05:11:26.506Z,98846.06
2023-01-21T05:13:53.071Z,98846.09
2023-01-21T05:16:19.807Z,98842.50
2023-01-21T05:18:48.394Z,98848.84
2023-01-21T05:21:14.943Z,98852.78
2023-01-21T05:23:41.487Z,98853.69
2023-01-21T05:26:08.072Z,98861.00
2023-01-21T05:28:34.626Z,98856.84
2023-01-21T05:31:01.871Z,98856.13
2023-01-21T05:33:29.784Z,98856.72
2023-01-21T05:35:56.369Z,98857.50
2023-01-21T05:38:22.951Z,98869.50
2023-01-21T05:40:49.547Z,98872.03
2023-01-21T05:43:16.144Z,98875.19
2023-01-21T05:45:42.918Z,98868.03
2023-01-21T05:48:09.468Z,98878.75
2023-01-21T05:50:38.089Z,98880.38
2023-01-21T05:53:04.943Z,98884.16
2023-01-21T05:55:31.534Z,98890.38
2023-01-21T05:57:58.097Z,98882.97
2023-01-21T06:00:24.681Z,98876.25
2023-01-21T06:02:51.228Z,98881.03
2023-01-21T06:05:17.814Z,98887.84
2023-01-21T06:07:44.395Z,98893.16
2023-01-21T06:10:10.993Z,98898.38
2023-01-21T06:12:37.531Z,98894.16
2023-01-21T06:15:04.215Z,98896.44
2023-01-21T06:17:30.748Z,98902.03
2023-01-21T06:19:57.333Z,98902.38
2023-01-21T06:22:23.910Z,98904.97
2023-01-21T06:24:50.524Z,98900.50
2023-01-21T06:27:17.076Z,98909.09
2023-01-21T06:29:44.133Z,98909.84
2023-01-21T06:32:10.905Z,98915.56
2023-01-21T06:34:37.677Z,98911.28
2023-01-21T06:37:04.304Z,98913.22
2023-01-21T06:39:30.859Z,98924.19
2023-01-21T06:41:57.423Z,98919.78
2023-01-21T06:44:24.080Z,98925.09
2023-01-21T06:47:00.804Z,98931.28
2023-01-21T06:49:27.928Z,98930.41
2023-01-21T06:51:54.652Z,98937.38
2023-01-21T06:54:21.665Z,98945.94
2023-01-21T06:56:48.594Z,98950.94
2023-01-21T06:59:18.322Z,98951.13
2023-01-21T07:01:45.604Z,98956.25
2023-01-21T07:04:12.269Z,98956.00
2023-01-21T07:06:39.703Z,98965.53
2023-01-21T07:09:07.256Z,98968.81
2023-01-21T07:11:34.056Z,98974.75
2023-01-21T07:14:00.685Z,98985.19
2023-01-21T07:16:27.403Z,98997.72
2023-01-21T07:18:54.034Z,98992.66
2023-01-21T07:21:21.247Z,98998.25
2023-01-21T07:23:47.914Z,98999.38
2023-01-21T07:26:15.462Z,99001.97
2023-01-21T07:28:42.787Z,99001.47
2023-01-21T07:31:19.655Z,99009.22
2023-01-21T07:33:46.495Z,99006.84
2023-01-21T07:36:13.179Z,99011.91
2023-01-21T07:38:40.141Z,99013.47
2023-01-21T07:41:07.015Z,99014.03
2023-01-21T07:43:34.843Z,99014.16
2023-01-21T07:46:03.101Z,99010.38
2023-01-21T07:48:29.728Z,99009.06
2023-01-21T07:51:00.348Z,99009.25
2023-01-21T07:53:27.441Z,99002.63
2023-01-21T07:55:54.979Z,99007.09
2023-01-21T07:58:21.698Z,99010.47
2023-01-21T08:00:48.264Z,99019.00
2023-01-21T08:03:14.891Z,99014.41
2023-01-21T08:05:45.775Z,99026.66
2023-01-21T08:08:12.341Z,99032.34
2023-01-21T08:10:38.909Z,99028.50
2023-01-21T08:13:07.946Z,99021.63
2023-01-21T08:15:34.565Z,99024.13
2023-01-21T08:18:01.122Z,99019.00
2023-01-21T08:20:27.808Z,99025.16
2023-01-21T08:22:54.391Z,99019.81
2023-01-21T08:25:21.194Z,99025.75
2023-01-21T08:27:48.116Z,99015.50
2023-01-21T08:30:14.857Z,99019.63
2023-01-21T08:32:41.928Z,99021.53
2023-01-21T08:35:08.728Z,99021.59
2023-01-21T08:37:35.324Z,99022.03
2023-01-21T08:40:01.898Z,99018.78
2023-01-21T08:42:28.968Z,99021.13
2023-01-21T08:44:56.462Z,99018.72
2023-01-21T08:47:23.470Z,99017.22
2023-01-21T08:49:50.212Z,99020.56
2023-01-21T08:52:21.035Z,99020.97
2023-01-21T08:54:50.433Z,99027.31
2023-01-21T08:57:17.244Z,99016.44
2023-01-21T08:59:43.811Z,99027.69
2023-01-21T09:02:11.183Z,99015.63
2023-01-21T09:04:37.731Z,99031.81
2023-01-21T09:07:04.329Z,99015.69
2023-01-21T09:09:31.455Z,99019.84
2023-01-21T09:11:57.999Z,99021.94
2023-01-21T09:14:24.603Z,99022.00
2023-01-21T09:16:51.194Z,99028.59
2023-01-21T09:19:18.092Z,99026.28
2023-01-21T09:21:44.670Z,99028.94
2023-01-21T09:24:11.231Z,99030.75
2023-01-21T09:26:37.827Z,99032.13
2023-01-21T09:29:04.457Z,99041.19
2023-01-21T09:31:31.189Z,99042.66
2023-01-21T09:33:59.342Z,99048.72
2023-01-21T09:36:27.600Z,99043.72
2023-01-21T09:38:54.361Z,99045.66
2023-01-21T09:41:23.558Z,99043.88
2023-01-21T09:43:53.229Z,99046.66
2023-01-21T09:46:40.534Z,99046.81
2023-01-21T09:49:10.051Z,99044.19
2023-01-21T09:51:52.438Z,99045.28
2023-01-21T09:54:22.144Z,99053.72
2023-01-21T09:56:51.517Z,99053.78
2023-01-21T09:59:27.336Z,99047.94
2023-01-21T10:01:56.202Z,99050.97
2023-01-21T10:04:28.866Z,99047.00
2023-01-21T10:06:58.470Z,99042.56
2023-01-21T10:09:32.348Z,99049.44
2023-01-21T10:12:01.630Z,99049.09
2023-01-21T10:14:46.866Z,99045.53
2023-01-21T10:17:32.146Z,99050.16
2023-01-21T10:20:18.639Z,99044.94
2023-01-21T10:22:50.212Z,99044.25
2023-01-21T10:25:23.541Z,99049.50
2023-01-21T10:27:50.466Z,99047.25
2023-01-21T10:30:24.956Z,99045.69
2023-01-21T10:32:52.341Z,99049.44
2023-01-21T10:35:19.512Z,99056.22
2023-01-21T10:37:48.569Z,99048.66
2023-01-21T10:40:43.540Z,99048.22
2023-01-21T10:43:19.271Z,99047.97
2023-01-21T10:45:56.231Z,99040.88
2023-01-21T10:48:23.069Z,99039.88
2023-01-21T10:50:55.473Z,99040.88
2023-01-21T10:53:33.563Z,99033.66
2023-01-21T10:56:00.115Z,99040.69
2023-01-21T10:58:28.571Z,99042.63
2023-01-21T11:00:55.457Z,99039.81
2023-01-21T11:03:30.060Z,99031.59
2023-01-21T11:05:57.894Z,99035.38
2023-01-21T11:08:24.499Z,99034.66
2023-01-21T11:10:51.449Z,99025.72
2023-01-21T11:13:18.026Z,99024.56
2023-01-21T11:15:45.195Z,99024.25
2023-01-21T11:18:30.798Z,99027.06
2023-01-21T11:20:58.605Z,99024.63
2023-01-21T11:23:26.524Z,99021.13
2023-01-21T11:25:54.346Z,99016.75
2023-01-21T11:28:21.883Z,99013.44
2023-01-21T11:30:51.401Z,99009.13
2023-01-21T11:33:25.549Z,99004.06
2023-01-21T11:35:52.475Z,99001.72
2023-01-21T11:38:25.231Z,98999.72
2023-01-21T11:41:14.454Z,98990.25
2023-01-21T11:43:44.557Z,98996.34
2023-01-21T11:46:21.725Z,98996.28
2023-01-21T11:48:48.350Z,99000.56
2023-01-21T11:51:16.349Z,99000.13
2023-01-21T11:53:42.929Z,98989.88
2023-01-21T11:56:09.479Z,98997.34
2023-01-21T11:58:37.153Z,99000.09
2023-01-21T12:01:04.878Z,98993.81
2023-01-21T12:03:32.877Z,98997.97
2023-01-21T12:05:59.982Z,98994.88
2023-01-21T12:08:32.862Z,98989.16
2023-01-21T12:11:02.311Z,98985.84
2023-01-21T12:13:47.293Z,98989.50
2023-01-21T12:16:13.979Z,98978.31
2023-01-21T12:18:41.101Z,98985.56
2023-01-21T12:21:27.144Z,98985.41
2023-01-21T12:24:12.373Z,98980.31
2023-01-21T12:26:48.432Z,98974.22
2023-01-21T12:29:19.521Z,98981.53
2023-01-21T12:31:49.018Z,98982.56
2023-01-21T12:34:32.618Z,98973.38
2023-01-21T12:37:03.954Z,98975.22
2023-01-21T12:39:34.703Z,98982.38
2023-01-21T12:42:23.074Z,98983.13
2023-01-21T12:44:54.022Z,98980.31
2023-01-21T12:47:25.679Z,98977.16
2023-01-21T12:49:54.240Z,98984.75
2023-01-21T12:52:22.796Z,98977.75
2023-01-21T12:55:01.181Z,98979.16
2023-01-21T12:57:42.058Z,98982.47
2023-01-21T13:00:28.023Z,98984.75
2023-01-21T13:03:06.862Z,98991.16
2023-01-21T13:05:45.588Z,98982.25
2023-01-21T13:08:21.446Z,98983.28
2023-01-21T13:10:50.251Z,98985.13
2023-01-21T13:13:16.872Z,98986.06
2023-01-21T13:15:43.913Z,98989.81
2023-01-21T13:18:15.409Z,98983.59
2023-01-21T13:20:42.832Z,98983.75
2023-01-21T13:23:29.377Z,98983.75
2023-01-21T13:26:04.279Z,98994.94
2023-01-21T13:28:48.645Z,98987.50
2023-01-21T13:31:18.488Z,98989.44
2023-01-21T13:33:51.925Z,99003.03
2023-01-21T13:36:37.305Z,98995.84
2023-01-21T13:39:16.014Z,98994.78
2023-01-21T13:41:45.453Z,98997.25
2023-01-21T13:44:11.918Z,99007.34
2023-01-21T13:46:47.949Z,98998.53
2023-01-21T13:49:33.446Z,99005.56
2023-01-21T13:52:11.637Z,99001.97
2023-01-21T13:54:47.368Z,98999.53
2023-01-21T13:57:22.598Z,99001.28
2023-01-21T13:59:53.467Z,99000.59
2023-01-21T14:02:19.987Z,99002.28
2023-01-21T14:04:49.112Z,99003.50
2023-01-21T14:07:21.805Z,99009.84
2023-01-21T14:09:50.453Z,99008.78
2023-01-21T14:12:18.550Z,99007.28
2023-01-21T14:14:47.975Z,99003.88
2023-01-21T14:17:32.757Z,99014.97
2023-01-21T14:20:18.127Z,99022.81
2023-01-21T14:23:07.354Z,99019.28
2023-01-21T14:25:54.117Z,99017.91
2023-01-21T14:28:39.139Z,99016.97
2023-01-21T14:31:19.366Z,99022.44
2023-01-21T14:34:04.498Z,99023.41
2023-01-21T14:36:38.862Z,99018.72
2023-01-21T14:39:24.401Z,99020.44
2023-01-21T14:41:53.760Z,99020.50
2023-01-21T14:44:39.825Z,99032.75
2023-01-21T14:47:16.708Z,99038.75
2023-01-21T14:49:50.697Z,99042.69
2023-01-21T14:52:21.355Z,99043.16
2023-01-21T14:54:47.990Z,99042.91
2023-01-21T14:57:28.759Z,99043.09
2023-01-21T15:00:01.815Z,99049.34
2023-01-21T15:02:33.285Z,99049.88
2023-01-21T15:05:20.293Z,99050.19
2023-01-21T15:07:47.413Z,99055.72
2023-01-21T15:10:20.935Z,99056.31
2023-01-21T15:12:51.952Z,99056.53
2023-01-21T15:15:36.497Z,99062.53
2023-01-21T15:18:04.633Z,99059.25
2023-01-21T15:20:50.469Z,99053.09
2023-01-21T15:23:20.052Z,99066.69
2023-01-21T15:26:04.791Z,99069.78
2023-01-21T15:28:38.360Z,99062.81
2023-01-21T15:31:05.903Z,99066.69
2023-01-21T15:33:32.512Z,99060.91
2023-01-21T15:35:59.325Z,99076.16
2023-01-21T15:38:27.157Z,99075.53
2023-01-21T15:40:54.554Z,99079.84
2023-01-21T15:43:27.230Z,99079.06
2023-01-21T15:45:56.727Z,99082.34
2023-01-21T15:48:41.992Z,99082.94
2023-01-21T15:51:20.408Z,99079.50
2023-01-21T15:53:59.390Z,99081.97
2023-01-21T15:56:25.957Z,99085.00
2023-01-21T15:59:04.793Z,99075.31
2023-01-21T16:01:35.266Z,99078.59
2023-01-21T16:04:20.359Z,99079.78
2023-01-21T16:06:50.826Z,99079.84
2023-01-21T16:09:22.428Z,99095.34
2023-01-21T16:12:11.472Z,99080.38
2023-01-21T16:14:52.673Z,99092.69
2023-01-21T16:17:25.948Z,99087.19
2023-01-21T16:19:52.867Z,99087.13
2023-01-21T16:22:25.562Z,99094.41
2023-01-21T16:24:57.668Z,99090.25
2023-01-21T16:27:25.482Z,99085.41
2023-01-21T16:29:59.052Z,99100.88
2023-01-21T16:32:27.164Z,99098.91
2023-01-21T16:34:54.004Z,99100.56
2023-01-21T16:37:21.654Z,99107.38
2023-01-21T16:39:48.873Z,99104.63
2023-01-21T16:42:23.138Z,99102.19
2023-01-21T16:44:49.709Z,99101.03
2023-01-21T16:47:26.578Z,99109.16
2023-01-21T16:49:53.598Z,99109.38
2023-01-21T16:52:20.319Z,99105.75
2023-01-21T16:54:47.641Z,99117.44
2023-01-21T16:57:17.092Z,99113.97
2023-01-21T16:59:45.129Z,99110.44
2023-01-21T17:02:19.068Z,99121.38
2023-01-21T17:04:45.680Z,99112.78
2023-01-21T17:07:13.588Z,99112.91
2023-01-21T17:09:40.153Z,99117.34
2023-01-21T17:12:07.350Z,99122.63
2023-01-21T17:14:34.649Z,99122.63
2023-01-21T17:17:02.133Z,99121.38
2023-01-21T17:19:38.927Z,99133.38
2023-01-21T17:22:12.646Z,99137.72
2023-01-21T17:24:44.075Z,99140.91
2023-01-21T17:27:11.545Z,99143.16
2023-01-21T17:29:41.383Z,99141.69
2023-01-21T17:32:22.263Z,99145.13
2023-01-21T17:35:07.750Z,99148.22
2023-01-21T17:37:42.226Z,99146.88
2023-01-21T17:40:23.275Z,99143.72
2023-01-21T17:42:50.143Z,99144.16
2023-01-21T17:45:18.706Z,99142.44
2023-01-21T17:48:07.257Z,99148.06
2023-01-21T17:50:33.444Z,99150.88
2023-01-21T17:53:03.464Z,99148.09
2023-01-21T17:55:33.974Z,99154.75
2023-01-21T17:58:04.662Z,99149.59
2023-01-21T18:00:31.225Z,99144.13
2023-01-21T18:02:58.338Z,99156.78
2023-01-21T18:05:24.928Z,99160.03
2023-01-21T18:07:51.610Z,99156.38
2023-01-21T18:10:20.003Z,99157.38
2023-01-21T18:12:46.581Z,99154.47
2023-01-21T18:15:16.381Z,99156.03
2023-01-21T18:17:44.572Z,99148.34
2023-01-21T18:20:18.217Z,99155.59
2023-01-21T18:22:45.381Z,99151.47
2023-01-21T18:25:12.923Z,99145.75
2023-01-21T18:27:39.925Z,99149.34
2023-01-21T18:30:11.832Z,99155.59
2023-01-21T18:32:38.420Z,99151.81
2023-01-21T18:35:05.235Z,99147.75
2023-01-21T18:37:31.776Z,99142.53
2023-01-21T18:40:06.351Z,99150.06
2023-01-21T18:42:32.981Z,99147.47
2023-01-21T18:44:59.561Z,99144.56
2023-01-21T18:47:26.135Z,99139.16
2023-01-21T18:49:52.758Z,99146.97
2023-01-21T18:52:20.338Z,99139.78
2023-01-21T18:54:46.987Z,99145.53
2023-01-21T18:57:14.637Z,99137.38
2023-01-21T18:59:41.176Z,99141.19
2023-01-21T19:02:14.590Z,99134.28
2023-01-21T19:04:41.294Z,99132.69
2023-01-21T19:07:18.104Z,99135.13
2023-01-21T19:09:46.240Z,99138.44
2023-01-21T19:12:17.910Z,99132.03
2023-01-21T19:14:44.811Z,99138.16
2023-01-21T19:17:15.212Z,99137.09
2023-01-21T19:19:41.773Z,99128.66
2023-01-21T19:22:12.935Z,99126.44
2023-01-21T19:24:39.813Z,99133.88
2023-01-21T19:27:09.251Z,99127.44
2023-01-21T19:29:35.786Z,99119.41
2023-01-21T19:32:03.033Z,99121.66
2023-01-21T19:34:29.889Z,99120.03
2023-01-21T19:36:56.530Z,99119.69
2023-01-21T19:39:24.081Z,99116.88
2023-01-21T19:42:03.382Z,99126.84
2023-01-21T19:44:34.045Z,99130.28
2023-01-21T19:47:00.779Z,99128.88
2023-01-21T19:49:27.355Z,99120.38
2023-01-21T19:51:53.976Z,99123.81
2023-01-21T19:54:20.504Z,99123.59
2023-01-21T19:56:47.095Z,99126.41
2023-01-21T19:59:14.838Z,99116.34
2023-01-21T20:01:41.681Z,99124.44
2023-01-21T20:04:08.961Z,99121.50
2023-01-21T20:06:40.829Z,99128.88
2023-01-21T20:09:07.495Z,99129.00
2023-01-21T20:11:34.079Z,99125.22
2023-01-21T20:14:00.706Z,99126.50
2023-01-21T20:16:27.363Z,99129.00
2023-01-21T20:18:55.403Z,99125.16
2023-01-21T20:21:22.536Z,99129.78
2023-01-21T20:23:51.307Z,99124.94
2023-01-21T20:26:19.592Z,99125.91
2023-01-21T20:28:50.578Z,99130.78
2023-01-21T20:31:17.575Z,99132.25
2023-01-21T20:33:44.273Z,99132.69
2023-01-21T20:36:19.058Z,99135.00
2023-01-21T20:38:45.619Z,99132.97
2023-01-21T20:41:12.435Z,99135.81
2023-01-21T20:43:41.882Z,99138.19
2023-01-21T20:46:21.629Z,99136.09
2023-01-21T20:48:48.505Z,99130.50
2023-01-21T20:51:15.125Z,99135.28
2023-01-21T20:53:41.742Z,99134.16
2023-01-21T20:56:19.183Z,99132.47
2023-01-21T20:58:47.826Z,99132.16
2023-01-21T21:01:15.140Z,99132.88
2023-01-21T21:03:41.692Z,99130.78
2023-01-21T21:06:12.225Z,99134.66
2023-01-21T21:08:38.932Z,99133.66
2023-01-21T21:11:05.536Z,99123.75
2023-01-21T21:13:35.304Z,99128.66
2023-01-21T21:16:03.034Z,99128.44
2023-01-21T21:18:29.612Z,99131.63
2023-01-21T21:20:56.174Z,99126.84
2023-01-21T21:23:22.750Z,99124.03
2023-01-21T21:25:49.513Z,99126.69
2023-01-21T21:28:17.315Z,99127.06
2023-01-21T21:30:44.884Z,99127.97
2023-01-21T21:33:19.247Z,99125.63
2023-01-21T21:35:47.289Z,99121.06
2023-01-21T21:38:22.906Z,99120.84
2023-01-21T21:40:53.180Z,99120.75
2023-01-21T21:43:32.357Z,99114.03
2023-01-21T21:46:22.798Z,99117.00
2023-01-21T21:48:50.433Z,99103.09
2023-01-21T21:51:17.804Z,99117.41
2023-01-21T21:53:44.976Z,99106.94
2023-01-21T21:56:21.573Z,99101.63
2023-01-21T21:58:48.416Z,99108.44
2023-01-21T22:01:22.167Z,99103.59
2023-01-21T22:03:48.763Z,99100.78
2023-01-21T22:06:15.451Z,99096.63
2023-01-21T22:08:42.279Z,99093.38
2023-01-21T22:11:09.854Z,99096.97
2023-01-21T22:13:37.717Z,99094.91
2023-01-21T22:16:04.517Z,99094.38
2023-01-21T22:18:31.176Z,99087.94
2023-01-21T22:21:01.123Z,99083.97
2023-01-21T22:23:29.609Z,99082.84
2023-01-21T22:25:56.363Z,99083.00
2023-01-21T22:28:23.053Z,99082.56
2023-01-21T22:30:49.750Z,99080.59
2023-01-21T22:33:16.349Z,99083.53
2023-01-21T22:35:45.245Z,99080.75
2023-01-21T22:38:11.858Z,99077.94
2023-01-21T22:40:40.299Z,99074.34
2023-01-21T22:43:07.326Z,99074.50
2023-01-21T22:45:33.944Z,99076.97
2023-01-21T22:48:01.547Z,99071.31
2023-01-21T22:50:28.316Z,99067.03
2023-01-21T22:52:54.865Z,99068.84
2023-01-21T22:55:21.417Z,99074.50
2023-01-21T22:57:47.962Z,99069.44
2023-01-21T23:00:15.315Z,99062.53
2023-01-21T23:02:41.892Z,99064.63
2023-01-21T23:05:09.097Z,99057.19
2023-01-21T23:07:35.683Z,99055.44
2023-01-21T23:10:02.399Z,99057.91
2023-01-21T23:12:28.972Z,99062.38
2023-01-21T23:14:55.535Z,99055.88
2023-01-21T23:17:22.392Z,99051.28
2023-01-21T23:19:49.128Z,99055.88
2023-01-21T23:22:15.701Z,99049.94
2023-01-21T23:24:42.245Z,99039.56
2023-01-21T23:27:08.876Z,99040.56
2023-01-21T23:29:35.440Z,99040.13
2023-01-21T23:32:02.164Z,99038.03
2023-01-21T23:34:28.868Z,99040.97
2023-01-21T23:36:55.424Z,99037.47
2023-01-21T23:39:22.004Z,99036.63
2023-01-21T23:41:48.614Z,99037.00
2023-01-21T23:44:15.176Z,99036.19
2023-01-21T23:46:43.296Z,99029.56
2023-01-21T23:49:09.859Z,99034.94
2023-01-21T23:51:36.462Z,99032.91
2023-01-21T23:54:03.399Z,99033.16
2023-01-21T23:56:29.978Z,99040.72
2023-01-21T23:58:56.848Z,99029.88
